createdAt,value
2022-09-11T00:01:24.499Z,-148.13
2022-09-11T00:03:51.074Z,-148.13
2022-09-11T00:06:28.905Z,-148.13
2022-09-11T00:09:00.790Z,15.62
2022-09-11T00:11:33.567Z,-148.13
2022-09-11T00:14:00.729Z,-148.13
2022-09-11T00:16:29.756Z,-148.13
2022-09-11T00:18:59.539Z,-148.13
2022-09-11T00:21:27.473Z,15.62
2022-09-11T00:23:54.164Z,15.62
2022-09-11T00:26:21.555Z,15.62
2022-09-11T00:28:49.051Z,15.62
2022-09-11T00:31:17.700Z,-148.13
2022-09-11T00:33:44.904Z,15.02
2022-09-11T00:36:26.452Z,-148.13
2022-09-11T00:38:58.759Z,-148.13
2022-09-11T00:41:28.226Z,-148.13
2022-09-11T00:44:07.956Z,-148.13
2022-09-11T00:46:42.449Z,-148.13
2022-09-11T00:49:40.281Z,-148.13
2022-09-11T00:52:18.673Z,-148.13
2022-09-11T00:54:58.327Z,-148.13
2022-09-11T00:57:28.013Z,-148.13
2022-09-11T00:59:55.909Z,-148.13
2022-09-11T01:02:27.318Z,-148.13
2022-09-11T01:04:55.268Z,-148.13
2022-09-11T01:07:24.625Z,-148.13
2022-09-11T01:09:51.275Z,-148.13
2022-09-11T01:12:27.707Z,-148.13
2022-09-11T01:15:28.046Z,-148.13
2022-09-11T01:18:15.764Z,-148.13
2022-09-11T01:21:01.028Z,-148.13
2022-09-11T01:23:31.074Z,-148.13
2022-09-11T01:26:12.533Z,-148.13
2022-09-11T01:28:50.471Z,-148.13
2022-09-11T01:31:20.753Z,-148.13
2022-09-11T01:34:00.435Z,-148.13
2022-09-11T01:36:35.748Z,-148.13
2022-09-11T01:39:04.084Z,-148.13
2022-09-11T01:41:32.744Z,-148.13
2022-09-11T01:44:26.349Z,-148.13
2022-09-11T01:46:53.930Z,-148.13
2022-09-11T01:49:35.269Z,-148.13
2022-09-11T01:52:05.513Z,-148.13
2022-09-11T01:54:36.690Z,-148.13
2022-09-11T01:57:09.731Z,-148.13
2022-09-11T01:59:49.786Z,-148.13
2022-09-11T02:02:22.404Z,-148.13
2022-09-11T02:04:52.352Z,-148.13
2022-09-11T02:07:35.264Z,-148.13
2022-09-11T02:10:23.886Z,-148.13
2022-09-11T02:13:04.736Z,-148.13
2022-09-11T02:15:38.605Z,-148.13
2022-09-11T02:18:22.312Z,-148.13
2022-09-11T02:20:48.858Z,-148.13
2022-09-11T02:23:15.641Z,-148.13
2022-09-11T02:25:42.431Z,-148.13
2022-09-11T02:28:09.530Z,-148.13
2022-09-11T02:30:38.212Z,-148.13
2022-09-11T02:33:13.665Z,-148.13
2022-09-11T02:35:45.391Z,-148.13
2022-09-11T02:38:25.336Z,-148.13
2022-09-11T02:41:10.000Z,-148.13
2022-09-11T02:43:54.645Z,-148.13
2022-09-11T02:46:39.976Z,-148.13
2022-09-11T02:49:25.129Z,-148.13
2022-09-11T02:52:12.886Z,-148.13
2022-09-11T02:54:54.371Z,-148.13
2022-09-11T02:57:25.367Z,-148.13
2022-09-11T03:00:01.094Z,-148.13
2022-09-11T03:02:29.636Z,-148.13
2022-09-11T03:04:56.728Z,-148.13
2022-09-11T03:07:25.282Z,-148.13
2022-09-11T03:09:52.437Z,-148.13
2022-09-11T03:12:19.094Z,15.02
2022-09-11T03:14:45.619Z,-148.13
2022-09-11T03:17:13.575Z,15.02
2022-09-11T03:19:40.268Z,15.02
2022-09-11T03:22:06.824Z,15.02
2022-09-11T03:24:33.300Z,13.95
2022-09-11T03:26:59.792Z,13.93
2022-09-11T03:29:26.480Z,13.93
2022-09-11T03:31:53.009Z,13.88
2022-09-11T03:34:19.802Z,13.90
2022-09-11T03:36:47.985Z,13.90
2022-09-11T03:39:14.694Z,13.89
2022-09-11T03:41:41.274Z,13.81
2022-09-11T03:44:08.149Z,13.79
2022-09-11T03:46:35.106Z,13.77
2022-09-11T03:49:02.067Z,13.72
2022-09-11T03:51:28.538Z,13.67
2022-09-11T03:53:54.989Z,13.66
2022-09-11T03:56:21.972Z,13.63
2022-09-11T03:58:48.969Z,13.63
2022-09-11T04:01:18.813Z,13.61
2022-09-11T04:03:45.766Z,13.54
2022-09-11T04:06:12.285Z,13.52
2022-09-11T04:08:51.361Z,13.51
2022-09-11T04:11:17.852Z,13.55
2022-09-11T04:13:44.417Z,13.47
2022-09-11T04:16:14.016Z,13.55
2022-09-11T04:18:42.227Z,13.53
2022-09-11T04:21:11.054Z,13.50
2022-09-11T04:26:24.622Z,13.43
2022-09-11T04:28:51.895Z,13.43
2022-09-11T04:31:19.452Z,-148.13
2022-09-11T04:33:46.415Z,-148.13
2022-09-11T04:36:16.905Z,-148.13
2022-09-11T04:38:44.367Z,-148.13
2022-09-11T04:41:11.259Z,-148.13
2022-09-11T04:43:39.634Z,-148.13
2022-09-11T04:48:53.153Z,-148.13
2022-09-11T04:51:25.676Z,-148.13
2022-09-11T04:56:38.325Z,-148.13
2022-09-11T04:59:22.316Z,-148.13
2022-09-11T05:01:49.660Z,-148.13
2022-09-11T05:04:21.736Z,-148.13
2022-09-11T05:06:50.703Z,-148.13
2022-09-11T05:09:18.055Z,-148.13
2022-09-11T05:11:44.596Z,-148.13
2022-09-11T05:14:11.648Z,-148.13
2022-09-11T05:16:38.934Z,-148.13
2022-09-11T05:19:06.271Z,-148.13
2022-09-11T05:21:33.385Z,-148.13
2022-09-11T05:24:01.217Z,-148.13
2022-09-11T05:26:30.257Z,-148.13
2022-09-11T05:28:58.941Z,-148.13
2022-09-11T05:31:25.977Z,-148.13
2022-09-11T05:33:53.867Z,-148.13
2022-09-11T05:36:20.645Z,-148.13
2022-09-11T05:38:47.401Z,-148.13
2022-09-11T05:41:15.235Z,-148.13
2022-09-11T05:43:43.122Z,-148.13
2022-09-11T05:46:14.981Z,-148.13
2022-09-11T05:51:21.490Z,13.67
2022-09-11T05:53:51.947Z,-148.13
2022-09-11T05:56:20.666Z,13.67
2022-09-11T05:58:56.694Z,13.67
2022-09-11T06:01:26.531Z,-148.13
2022-09-11T06:03:53.858Z,-148.13
2022-09-11T06:08:49.989Z,13.67
2022-09-11T06:11:18.234Z,13.67
2022-09-11T06:13:50.748Z,13.67
2022-09-11T06:16:29.931Z,13.67
2022-09-11T06:19:02.107Z,13.67
2022-09-11T06:21:30.094Z,13.67
2022-09-11T06:23:58.969Z,13.67
2022-09-11T06:26:26.731Z,13.67
2022-09-11T06:28:54.494Z,-148.13
2022-09-11T06:31:22.716Z,-148.13
2022-09-11T06:33:59.496Z,-148.13
2022-09-11T06:36:30.867Z,13.67
2022-09-11T06:39:02.051Z,-148.13
2022-09-11T06:41:28.609Z,-148.13
2022-09-11T06:43:59.541Z,-148.13
2022-09-11T08:23:26.877Z,23.74
2022-09-11T08:25:54.462Z,24.08
2022-09-11T08:28:20.929Z,23.75
2022-09-11T08:30:47.396Z,23.33
2022-09-11T08:33:14.100Z,24.08
2022-09-11T08:38:32.058Z,25.29
2022-09-11T08:40:59.244Z,24.69
2022-09-11T08:46:14.206Z,24.69
2022-09-11T08:49:00.301Z,24.49
2022-09-11T08:51:27.173Z,24.84
2022-09-11T08:53:54.761Z,25.39
2022-09-11T08:56:23.597Z,25.62
2022-09-11T08:59:02.524Z,26.05
2022-09-11T09:02:07.772Z,25.06
2022-09-11T09:05:00.392Z,24.63
2022-09-11T09:08:08.480Z,25.22
2022-09-11T09:13:46.883Z,25.25
2022-09-11T09:16:25.469Z,24.46
2022-09-11T09:25:00.247Z,26.00
2022-09-11T09:27:38.637Z,26.14
2022-09-11T09:33:15.051Z,26.91
2022-09-11T09:35:44.509Z,26.75
2022-09-11T09:38:18.585Z,26.40
2022-09-11T09:41:26.547Z,27.02
2022-09-11T09:44:04.767Z,26.74
2022-09-11T09:49:38.090Z,26.74
2022-09-11T09:55:11.705Z,26.94
2022-09-11T09:57:41.841Z,26.09
2022-09-11T10:02:57.233Z,26.06
2022-09-11T10:05:50.121Z,25.61
2022-09-11T10:11:28.219Z,26.11
2022-09-11T10:16:37.362Z,27.38
2022-09-11T10:19:04.940Z,28.09
2022-09-11T10:24:23.372Z,27.44
2022-09-11T10:26:59.715Z,27.80
2022-09-11T10:29:33.472Z,28.48
2022-09-11T10:32:12.240Z,27.47
2022-09-11T10:34:40.577Z,27.87
2022-09-11T10:37:16.238Z,27.10
2022-09-11T10:39:44.451Z,27.16
2022-09-11T10:42:17.669Z,26.71
2022-09-11T10:44:45.183Z,26.67
2022-09-11T10:47:23.332Z,27.40
2022-09-11T10:49:49.871Z,26.97
2022-09-11T10:55:03.282Z,27.46
2022-09-11T10:57:41.908Z,27.85
2022-09-11T11:00:08.908Z,28.05
2022-09-11T11:05:44.365Z,28.33
2022-09-11T11:14:05.880Z,27.62
2022-09-11T11:16:51.004Z,26.93
2022-09-11T11:19:56.766Z,27.70
2022-09-11T11:22:43.335Z,27.65
2022-09-11T11:28:12.852Z,28.20
2022-09-11T11:39:58.023Z,25.13
2022-09-11T11:42:35.272Z,24.45
2022-09-11T11:50:40.527Z,25.21
2022-09-11T11:59:12.698Z,24.04
2022-09-11T12:04:43.132Z,23.28
2022-09-11T12:10:05.685Z,23.34
2022-09-11T12:12:34.822Z,24.01
2022-09-11T12:15:07.803Z,24.64
2022-09-11T12:20:34.765Z,25.38
2022-09-11T12:25:42.156Z,26.09
2022-09-11T12:31:11.948Z,26.68
2022-09-11T12:33:41.463Z,26.47
2022-09-11T12:36:10.659Z,26.07
2022-09-11T12:44:29.956Z,24.55
2022-09-11T12:49:38.351Z,23.58
2022-09-11T12:52:05.356Z,23.88
2022-09-11T12:54:42.451Z,23.95
2022-09-11T12:57:19.245Z,23.71
2022-09-11T13:02:43.910Z,23.47
2022-09-11T13:05:24.207Z,23.14
2022-09-11T13:07:56.002Z,22.97
2022-09-11T13:10:36.592Z,23.21
2022-09-11T13:13:05.811Z,23.00
2022-09-11T13:15:48.576Z,23.09
2022-09-11T13:18:32.444Z,23.16
2022-09-11T13:21:00.629Z,23.07
2022-09-11T13:23:28.427Z,22.97
2022-09-11T13:25:58.235Z,23.13
2022-09-11T13:28:27.379Z,23.14
2022-09-11T13:33:49.256Z,23.00
2022-09-11T13:36:16.746Z,22.95
2022-09-11T13:41:37.479Z,23.26
2022-09-11T13:44:09.915Z,23.39
2022-09-11T13:46:50.060Z,23.69
2022-09-11T13:49:36.243Z,23.80
2022-09-11T13:57:31.922Z,24.07
2022-09-11T14:00:08.146Z,24.81
2022-09-11T14:08:24.768Z,24.96
2022-09-11T14:10:54.089Z,25.00
2022-09-11T14:13:23.135Z,24.83
2022-09-11T14:16:17.980Z,24.09
2022-09-11T14:18:55.567Z,23.98
2022-09-11T14:21:24.764Z,23.48
2022-09-11T14:23:56.447Z,23.27
2022-09-11T14:26:24.973Z,23.28
2022-09-11T14:28:59.645Z,23.08
2022-09-11T14:31:40.416Z,22.95
2022-09-11T14:34:20.727Z,23.08
2022-09-11T14:36:50.631Z,23.60
2022-09-11T14:39:34.706Z,25.18
2022-09-11T14:42:01.529Z,24.94
2022-09-11T14:44:28.663Z,24.68
2022-09-11T14:46:56.174Z,24.51
2022-09-11T14:49:22.683Z,24.47
2022-09-11T14:51:54.453Z,24.36
2022-09-11T14:54:21.955Z,24.04
2022-09-11T14:56:49.336Z,23.69
2022-09-11T15:01:59.684Z,23.72
2022-09-11T15:04:27.362Z,23.66
2022-09-11T15:07:03.212Z,24.18
2022-09-11T15:12:12.395Z,26.16
2022-09-11T15:14:56.213Z,26.25
2022-09-11T15:17:27.093Z,25.70
2022-09-11T15:19:53.737Z,25.13
2022-09-11T15:22:29.483Z,25.04
2022-09-11T15:25:00.509Z,24.39
2022-09-11T15:27:36.525Z,24.41
2022-09-11T15:30:11.406Z,24.29
2022-09-11T15:35:18.980Z,25.82
2022-09-11T15:37:46.784Z,26.47
2022-09-11T15:40:14.021Z,27.45
2022-09-11T15:42:40.602Z,27.65
2022-09-11T15:45:17.455Z,26.67
2022-09-11T15:47:53.406Z,25.84
2022-09-11T15:50:24.588Z,25.13
2022-09-11T15:52:51.063Z,24.58
2022-09-11T15:55:17.613Z,24.39
2022-09-11T15:57:44.177Z,24.15
2022-09-11T16:00:11.986Z,24.18
2022-09-11T16:05:19.361Z,24.32
2022-09-11T16:07:56.629Z,25.54
2022-09-11T16:10:31.208Z,26.16
2022-09-11T16:12:58.967Z,27.36
2022-09-11T16:15:25.768Z,27.44
2022-09-11T16:17:52.377Z,27.57
2022-09-11T16:20:22.807Z,27.94
2022-09-11T16:25:34.943Z,28.54
2022-09-11T16:28:01.632Z,28.88
2022-09-11T16:33:12.877Z,28.61
2022-09-11T16:35:39.583Z,28.27
2022-09-11T16:38:17.514Z,28.34
2022-09-11T16:43:24.829Z,27.51
2022-09-11T16:45:53.596Z,27.32
2022-09-11T16:51:00.804Z,25.98
2022-09-11T16:53:33.108Z,25.01
2022-09-11T16:56:01.362Z,24.69
2022-09-11T16:58:28.971Z,24.19
2022-09-11T17:01:03.566Z,23.82
2022-09-11T17:03:32.248Z,23.48
2022-09-11T17:08:41.552Z,23.30
2022-09-11T17:11:10.948Z,23.37
2022-09-11T17:13:47.858Z,23.32
2022-09-11T17:16:17.480Z,23.19
2022-09-11T17:21:38.091Z,22.99
2022-09-11T17:24:09.997Z,22.96
2022-09-11T17:26:44.496Z,22.81
2022-09-11T17:34:32.589Z,22.60
2022-09-11T17:37:00.034Z,22.48
2022-09-11T17:39:34.459Z,22.35
2022-09-11T17:42:01.943Z,22.25
2022-09-11T17:47:16.784Z,21.97
2022-09-11T17:49:43.305Z,21.81
2022-09-11T17:52:09.927Z,21.75
2022-09-11T17:54:36.452Z,21.57
2022-09-11T17:57:03.248Z,21.40
2022-09-11T17:59:37.908Z,21.31
2022-09-11T18:02:04.693Z,21.24
2022-09-11T18:04:31.415Z,-148.13
2022-09-11T18:09:38.328Z,20.94
2022-09-11T18:12:04.981Z,20.82
2022-09-11T18:14:32.234Z,20.71
2022-09-11T18:19:39.168Z,20.51
2022-09-11T18:22:10.045Z,20.46
2022-09-11T18:24:40.606Z,20.37
2022-09-11T18:27:14.997Z,20.31
2022-09-11T18:29:50.269Z,20.26
2022-09-11T18:32:16.926Z,20.18
2022-09-11T18:34:51.281Z,20.16
2022-09-11T18:37:17.846Z,20.11
2022-09-11T18:39:46.890Z,20.08
2022-09-11T18:42:17.232Z,20.02
2022-09-11T18:44:44.114Z,19.97
2022-09-11T18:47:10.594Z,19.84
2022-09-11T18:49:37.121Z,19.75
2022-09-11T18:52:03.718Z,19.74
2022-09-11T18:57:11.734Z,19.69
2022-09-11T19:02:19.570Z,19.59
2022-09-11T19:04:46.131Z,19.55
2022-09-11T19:09:54.402Z,19.35
2022-09-11T19:12:21.176Z,19.31
2022-09-11T19:14:48.509Z,19.28
2022-09-11T19:17:15.099Z,19.25
2022-09-11T19:19:41.791Z,19.24
2022-09-11T19:22:08.318Z,19.23
2022-09-11T19:24:35.574Z,19.20
2022-09-11T19:27:02.130Z,19.17
2022-09-11T19:34:50.196Z,19.13
2022-09-11T19:40:01.348Z,18.97
2022-09-11T19:42:29.167Z,18.86
2022-09-11T19:44:56.380Z,18.83
2022-09-11T19:47:29.435Z,18.82
2022-09-11T19:49:56.063Z,18.78
2022-09-11T19:52:22.699Z,18.74
2022-09-11T19:57:29.559Z,18.62
2022-09-11T19:59:56.010Z,18.57
2022-09-11T20:02:22.915Z,18.52
2022-09-11T20:04:49.390Z,18.45
2022-09-11T20:07:15.852Z,18.40
2022-09-11T20:09:42.820Z,18.37
2022-09-11T20:17:31.143Z,17.93
2022-09-11T20:20:00.479Z,17.84
2022-09-11T20:25:12.528Z,17.98
2022-09-11T20:27:39.133Z,18.10
2022-09-11T20:30:06.027Z,18.17
2022-09-11T20:32:32.592Z,18.17
2022-09-11T20:35:00.474Z,18.17
2022-09-11T20:37:27.134Z,18.16
2022-09-11T20:39:57.158Z,18.15
2022-09-11T20:42:23.655Z,18.11
2022-09-11T20:44:50.179Z,18.11
2022-09-11T20:47:16.729Z,18.06
2022-09-11T20:49:43.196Z,18.03
2022-09-11T20:52:11.013Z,18.00
2022-09-11T20:54:37.570Z,17.97
2022-09-11T20:57:04.648Z,17.86
2022-09-11T20:59:34.548Z,17.80
2022-09-11T21:02:01.630Z,17.72
2022-09-11T21:04:28.134Z,17.65
2022-09-11T21:09:35.474Z,17.54
2022-09-11T21:12:05.769Z,17.51
2022-09-11T21:14:32.272Z,17.50
2022-09-11T21:16:58.739Z,17.46
2022-09-11T21:19:25.371Z,17.40
2022-09-11T21:21:52.117Z,17.38
2022-09-11T21:24:18.746Z,17.33
2022-09-11T21:26:45.331Z,17.26
2022-09-11T21:29:13.296Z,17.20
2022-09-11T21:31:40.021Z,17.16
2022-09-11T21:34:06.523Z,17.14
2022-09-11T21:36:33.564Z,17.09
2022-09-11T21:39:00.071Z,17.02
2022-09-11T21:41:26.603Z,17.00
2022-09-11T21:43:53.063Z,16.96
2022-09-11T21:46:20.591Z,16.93
2022-09-11T21:48:47.154Z,16.86
2022-09-11T21:51:18.644Z,16.80
2022-09-11T21:53:46.738Z,16.73
2022-09-11T21:56:19.300Z,16.68
2022-09-11T21:58:46.832Z,16.60
2022-09-11T22:01:14.519Z,16.53
2022-09-11T22:03:41.051Z,16.49
2022-09-11T22:06:08.364Z,16.41
2022-09-11T22:08:35.424Z,16.40
2022-09-11T22:11:03.168Z,16.38
2022-09-11T22:13:29.980Z,16.36
2022-09-11T22:18:38.442Z,16.36
2022-09-11T22:21:05.620Z,16.35
2022-09-11T22:23:33.261Z,16.34
2022-09-11T22:26:21.494Z,16.34
2022-09-11T22:28:49.097Z,16.34
2022-09-11T22:31:26.693Z,16.40
2022-09-11T22:33:53.870Z,16.52
2022-09-11T22:36:23.726Z,16.60
2022-09-11T22:38:50.938Z,16.68
2022-09-11T22:43:59.344Z,16.84
2022-09-11T22:46:38.790Z,16.86
2022-09-11T22:49:05.821Z,16.90
2022-09-11T22:51:34.010Z,16.93
2022-09-11T22:56:47.677Z,17.21
2022-09-11T22:59:14.168Z,17.24
2022-09-11T23:01:40.715Z,17.31
2022-09-11T23:04:07.374Z,17.42
2022-09-11T23:09:39.523Z,17.46
2022-09-11T23:14:47.091Z,17.49
2022-09-11T23:17:13.693Z,17.51
2022-09-11T23:19:40.207Z,17.51
2022-09-11T23:22:06.784Z,17.52
2022-09-11T23:24:34.062Z,17.54
2022-09-11T23:27:00.526Z,17.51
2022-09-11T23:32:10.034Z,17.48
2022-09-11T23:34:36.556Z,17.45
2022-09-11T23:37:03.382Z,17.44
2022-09-11T23:42:10.222Z,17.35
2022-09-11T23:44:36.704Z,17.43
2022-09-11T23:47:04.166Z,17.38
2022-09-11T23:49:35.530Z,17.35
2022-09-11T23:52:03.670Z,17.25
2022-09-11T23:54:30.124Z,17.27
2022-09-11T23:56:57.449Z,17.25
2022-09-11T23:59:24.135Z,17.19
